sensor_id;sensor_type;location;lat;lon;timestamp;P1;durP1;ratioP1;P2;durP2;ratioP2
70322;SDS011;57735;56.264;43.898;2023-01-31T00:02:16;16.98;;;7.28;;
70322;SDS011;57735;56.264;43.898;2023-01-31T00:04:47;22.83;;;8.52;;
70322;SDS011;57735;56.264;43.898;2023-01-31T00:07:18;20.15;;;8.00;;
70322;SDS011;57735;56.264;43.898;2023-01-31T00:09:49;21.17;;;8.18;;
70322;SDS011;57735;56.264;43.898;2023-01-31T00:12:19;20.27;;;8.85;;
70322;SDS011;57735;56.264;43.898;2023-01-31T00:14:50;20.98;;;8.07;;
70322;SDS011;57735;56.264;43.898;2023-01-31T00:17:21;25.02;;;8.45;;
70322;SDS011;57735;56.264;43.898;2023-01-31T00:19:54;21.08;;;7.90;;
70322;SDS011;57735;56.264;43.898;2023-01-31T00:22:25;17.50;;;7.40;;
70322;SDS011;57735;56.264;43.898;2023-01-31T00:24:56;19.88;;;7.72;;
70322;SDS011;57735;56.264;43.898;2023-01-31T00:27:27;16.92;;;7.53;;
70322;SDS011;57735;56.264;43.898;2023-01-31T00:30:00;23.70;;;8.63;;
70322;SDS011;57735;56.264;43.898;2023-01-31T00:32:31;20.75;;;8.85;;
70322;SDS011;57735;56.264;43.898;2023-01-31T00:35:01;22.67;;;7.78;;
70322;SDS011;57735;56.264;43.898;2023-01-31T00:37:33;23.00;;;8.95;;
70322;SDS011;57735;56.264;43.898;2023-01-31T00:40:04;22.02;;;7.82;;
70322;SDS011;57735;56.264;43.898;2023-01-31T00:42:35;18.25;;;7.90;;
70322;SDS011;57735;56.264;43.898;2023-01-31T00:45:06;25.20;;;9.80;;
70322;SDS011;57735;56.264;43.898;2023-01-31T00:47:45;22.92;;;9.27;;
70322;SDS011;57735;56.264;43.898;2023-01-31T00:50:15;21.60;;;8.73;;
70322;SDS011;57735;56.264;43.898;2023-01-31T00:52:48;20.08;;;9.45;;
70322;SDS011;57735;56.264;43.898;2023-01-31T00:55:19;26.25;;;9.30;;
70322;SDS011;57735;56.264;43.898;2023-01-31T00:57:50;24.88;;;10.07;;
70322;SDS011;57735;56.264;43.898;2023-01-31T01:00:21;24.75;;;8.75;;
70322;SDS011;57735;56.264;43.898;2023-01-31T01:02:52;25.35;;;10.45;;
70322;SDS011;57735;56.264;43.898;2023-01-31T01:05:22;21.58;;;8.63;;
70322;SDS011;57735;56.264;43.898;2023-01-31T01:07:53;23.95;;;9.70;;
70322;SDS011;57735;56.264;43.898;2023-01-31T01:10:24;20.27;;;8.77;;
70322;SDS011;57735;56.264;43.898;2023-01-31T01:12:55;25.85;;;8.77;;
70322;SDS011;57735;56.264;43.898;2023-01-31T01:15:25;22.23;;;9.52;;
70322;SDS011;57735;56.264;43.898;2023-01-31T01:17:56;19.90;;;8.57;;
70322;SDS011;57735;56.264;43.898;2023-01-31T01:20:27;20.98;;;7.90;;
70322;SDS011;57735;56.264;43.898;2023-01-31T01:22:58;23.27;;;8.25;;
70322;SDS011;57735;56.264;43.898;2023-01-31T01:25:29;24.88;;;9.40;;
70322;SDS011;57735;56.264;43.898;2023-01-31T01:27:59;19.65;;;8.02;;
70322;SDS011;57735;56.264;43.898;2023-01-31T01:30:30;22.95;;;8.88;;
70322;SDS011;57735;56.264;43.898;2023-01-31T01:33:03;24.10;;;9.63;;
70322;SDS011;57735;56.264;43.898;2023-01-31T01:35:37;20.95;;;8.52;;
70322;SDS011;57735;56.264;43.898;2023-01-31T01:38:08;22.88;;;8.57;;
70322;SDS011;57735;56.264;43.898;2023-01-31T01:40:41;23.25;;;9.35;;
70322;SDS011;57735;56.264;43.898;2023-01-31T01:43:12;24.00;;;8.60;;
70322;SDS011;57735;56.264;43.898;2023-01-31T01:45:43;20.83;;;8.60;;
70322;SDS011;57735;56.264;43.898;2023-01-31T01:48:15;28.90;;;9.82;;
70322;SDS011;57735;56.264;43.898;2023-01-31T01:50:47;23.35;;;9.18;;
70322;SDS011;57735;56.264;43.898;2023-01-31T01:53:19;21.58;;;8.85;;
70322;SDS011;57735;56.264;43.898;2023-01-31T01:55:53;22.13;;;9.43;;
70322;SDS011;57735;56.264;43.898;2023-01-31T02:01:13;24.65;;;9.15;;
70322;SDS011;57735;56.264;43.898;2023-01-31T02:03:46;20.63;;;8.60;;
70322;SDS011;57735;56.264;43.898;2023-01-31T02:06:18;18.98;;;6.97;;
70322;SDS011;57735;56.264;43.898;2023-01-31T02:08:50;24.00;;;9.77;;
70322;SDS011;57735;56.264;43.898;2023-01-31T02:11:25;21.15;;;8.20;;
70322;SDS011;57735;56.264;43.898;2023-01-31T02:14:00;17.17;;;7.82;;
70322;SDS011;57735;56.264;43.898;2023-01-31T02:16:32;22.52;;;8.13;;
70322;SDS011;57735;56.264;43.898;2023-01-31T02:19:05;22.45;;;8.10;;
70322;SDS011;57735;56.264;43.898;2023-01-31T02:30:11;21.38;;;7.88;;
70322;SDS011;57735;56.264;43.898;2023-01-31T02:35:51;16.95;;;6.93;;
70322;SDS011;57735;56.264;43.898;2023-01-31T02:41:18;18.48;;;7.57;;
70322;SDS011;57735;56.264;43.898;2023-01-31T02:43:53;24.00;;;7.55;;
70322;SDS011;57735;56.264;43.898;2023-01-31T02:49:32;21.10;;;8.10;;
70322;SDS011;57735;56.264;43.898;2023-01-31T02:55:03;22.95;;;10.23;;
70322;SDS011;57735;56.264;43.898;2023-01-31T02:57:58;18.55;;;7.65;;
70322;SDS011;57735;56.264;43.898;2023-01-31T03:00:34;23.00;;;9.25;;
70322;SDS011;57735;56.264;43.898;2023-01-31T03:03:11;19.10;;;7.70;;
70322;SDS011;57735;56.264;43.898;2023-01-31T03:14:32;18.15;;;8.48;;
70322;SDS011;57735;56.264;43.898;2023-01-31T03:17:20;20.90;;;7.13;;
70322;SDS011;57735;56.264;43.898;2023-01-31T03:20:17;15.15;;;7.35;;
70322;SDS011;57735;56.264;43.898;2023-01-31T03:23:02;22.92;;;7.68;;
70322;SDS011;57735;56.264;43.898;2023-01-31T03:25:36;16.90;;;7.05;;
70322;SDS011;57735;56.264;43.898;2023-01-31T03:28:10;18.75;;;8.20;;
70322;SDS011;57735;56.264;43.898;2023-01-31T03:30:48;17.73;;;7.53;;
70322;SDS011;57735;56.264;43.898;2023-01-31T03:33:27;16.92;;;6.40;;
70322;SDS011;57735;56.264;43.898;2023-01-31T03:38:53;18.02;;;7.10;;
70322;SDS011;57735;56.264;43.898;2023-01-31T03:44:43;18.02;;;7.82;;
70322;SDS011;57735;56.264;43.898;2023-01-31T03:50:09;21.25;;;7.97;;
70322;SDS011;57735;56.264;43.898;2023-01-31T03:52:48;20.30;;;7.53;;
70322;SDS011;57735;56.264;43.898;2023-01-31T03:55:30;17.75;;;7.70;;
70322;SDS011;57735;56.264;43.898;2023-01-31T03:58:09;17.92;;;7.47;;
70322;SDS011;57735;56.264;43.898;2023-01-31T04:00:45;19.75;;;7.60;;
70322;SDS011;57735;56.264;43.898;2023-01-31T04:03:26;21.00;;;7.50;;
70322;SDS011;57735;56.264;43.898;2023-01-31T04:06:01;19.95;;;7.25;;
70322;SDS011;57735;56.264;43.898;2023-01-31T04:08:32;22.00;;;8.93;;
70322;SDS011;57735;56.264;43.898;2023-01-31T04:11:04;17.52;;;7.57;;
70322;SDS011;57735;56.264;43.898;2023-01-31T04:13:39;16.55;;;7.18;;
70322;SDS011;57735;56.264;43.898;2023-01-31T04:16:11;17.40;;;7.55;;
70322;SDS011;57735;56.264;43.898;2023-01-31T04:18:42;14.52;;;6.70;;
70322;SDS011;57735;56.264;43.898;2023-01-31T04:21:13;18.48;;;6.90;;
70322;SDS011;57735;56.264;43.898;2023-01-31T04:23:44;15.93;;;6.40;;
70322;SDS011;57735;56.264;43.898;2023-01-31T04:26:15;20.35;;;7.10;;
70322;SDS011;57735;56.264;43.898;2023-01-31T04:28:46;16.85;;;6.78;;
70322;SDS011;57735;56.264;43.898;2023-01-31T04:31:16;15.90;;;7.03;;
70322;SDS011;57735;56.264;43.898;2023-01-31T04:33:47;17.27;;;6.78;;
70322;SDS011;57735;56.264;43.898;2023-01-31T04:36:18;20.10;;;7.50;;
70322;SDS011;57735;56.264;43.898;2023-01-31T04:38:49;18.75;;;7.90;;
70322;SDS011;57735;56.264;43.898;2023-01-31T04:41:20;21.05;;;7.38;;
70322;SDS011;57735;56.264;43.898;2023-01-31T04:43:51;19.27;;;7.75;;
70322;SDS011;57735;56.264;43.898;2023-01-31T04:46:21;19.23;;;7.85;;
70322;SDS011;57735;56.264;43.898;2023-01-31T04:48:52;17.42;;;6.10;;
70322;SDS011;57735;56.264;43.898;2023-01-31T04:51:23;19.35;;;6.00;;
70322;SDS011;57735;56.264;43.898;2023-01-31T04:53:54;22.95;;;8.18;;
70322;SDS011;57735;56.264;43.898;2023-01-31T04:56:25;19.55;;;6.65;;
70322;SDS011;57735;56.264;43.898;2023-01-31T04:58:56;22.33;;;8.13;;
70322;SDS011;57735;56.264;43.898;2023-01-31T05:01:27;23.08;;;7.60;;
70322;SDS011;57735;56.264;43.898;2023-01-31T05:03:58;15.32;;;6.18;;
70322;SDS011;57735;56.264;43.898;2023-01-31T05:06:29;19.52;;;6.85;;
70322;SDS011;57735;56.264;43.898;2023-01-31T05:09:00;16.88;;;6.93;;
70322;SDS011;57735;56.264;43.898;2023-01-31T05:11:31;17.20;;;6.85;;
70322;SDS011;57735;56.264;43.898;2023-01-31T05:14:01;14.65;;;5.57;;
70322;SDS011;57735;56.264;43.898;2023-01-31T05:16:32;15.55;;;5.97;;
70322;SDS011;57735;56.264;43.898;2023-01-31T05:19:06;16.17;;;5.65;;
70322;SDS011;57735;56.264;43.898;2023-01-31T05:21:37;15.00;;;7.10;;
70322;SDS011;57735;56.264;43.898;2023-01-31T05:24:25;17.88;;;6.97;;
70322;SDS011;57735;56.264;43.898;2023-01-31T05:26:59;17.13;;;6.80;;
70322;SDS011;57735;56.264;43.898;2023-01-31T05:29:31;13.82;;;6.53;;
70322;SDS011;57735;56.264;43.898;2023-01-31T05:32:02;13.45;;;6.32;;
70322;SDS011;57735;56.264;43.898;2023-01-31T05:34:33;14.60;;;6.38;;
70322;SDS011;57735;56.264;43.898;2023-01-31T05:37:04;15.10;;;6.30;;
70322;SDS011;57735;56.264;43.898;2023-01-31T05:39:35;14.30;;;5.88;;
70322;SDS011;57735;56.264;43.898;2023-01-31T05:42:06;19.30;;;7.03;;
70322;SDS011;57735;56.264;43.898;2023-01-31T05:44:37;17.15;;;7.20;;
70322;SDS011;57735;56.264;43.898;2023-01-31T05:47:08;15.25;;;6.55;;
70322;SDS011;57735;56.264;43.898;2023-01-31T05:49:41;18.48;;;7.40;;
70322;SDS011;57735;56.264;43.898;2023-01-31T05:52:11;18.67;;;7.28;;
70322;SDS011;57735;56.264;43.898;2023-01-31T05:54:44;18.60;;;7.20;;
70322;SDS011;57735;56.264;43.898;2023-01-31T05:57:15;13.18;;;5.88;;
70322;SDS011;57735;56.264;43.898;2023-01-31T05:59:46;19.95;;;6.15;;
70322;SDS011;57735;56.264;43.898;2023-01-31T06:02:17;18.10;;;6.90;;
70322;SDS011;57735;56.264;43.898;2023-01-31T06:04:48;13.88;;;5.72;;
70322;SDS011;57735;56.264;43.898;2023-01-31T06:07:19;18.92;;;7.13;;
70322;SDS011;57735;56.264;43.898;2023-01-31T06:09:50;12.90;;;5.65;;
70322;SDS011;57735;56.264;43.898;2023-01-31T06:12:21;12.75;;;5.70;;
70322;SDS011;57735;56.264;43.898;2023-01-31T06:14:52;20.70;;;7.68;;
70322;SDS011;57735;56.264;43.898;2023-01-31T06:17:23;15.63;;;5.93;;
70322;SDS011;57735;56.264;43.898;2023-01-31T06:19:56;16.13;;;5.65;;
70322;SDS011;57735;56.264;43.898;2023-01-31T06:22:27;20.48;;;7.22;;
70322;SDS011;57735;56.264;43.898;2023-01-31T06:24:58;14.50;;;5.97;;
70322;SDS011;57735;56.264;43.898;2023-01-31T06:27:32;12.07;;;5.50;;
70322;SDS011;57735;56.264;43.898;2023-01-31T06:30:04;13.77;;;6.13;;
70322;SDS011;57735;56.264;43.898;2023-01-31T06:32:35;14.63;;;6.70;;
70322;SDS011;57735;56.264;43.898;2023-01-31T06:35:06;15.60;;;5.22;;
70322;SDS011;57735;56.264;43.898;2023-01-31T06:37:37;10.27;;;4.40;;
70322;SDS011;57735;56.264;43.898;2023-01-31T06:40:08;19.88;;;6.70;;
70322;SDS011;57735;56.264;43.898;2023-01-31T06:42:40;11.23;;;4.60;;
70322;SDS011;57735;56.264;43.898;2023-01-31T06:45:11;11.98;;;5.60;;
70322;SDS011;57735;56.264;43.898;2023-01-31T06:47:43;14.77;;;4.90;;
70322;SDS011;57735;56.264;43.898;2023-01-31T06:50:17;15.05;;;5.88;;
70322;SDS011;57735;56.264;43.898;2023-01-31T06:52:50;15.70;;;5.28;;
70322;SDS011;57735;56.264;43.898;2023-01-31T06:55:21;12.52;;;5.30;;
70322;SDS011;57735;56.264;43.898;2023-01-31T06:57:52;12.02;;;5.45;;
70322;SDS011;57735;56.264;43.898;2023-01-31T07:00:24;12.32;;;5.05;;
70322;SDS011;57735;56.264;43.898;2023-01-31T07:02:55;11.52;;;4.70;;
70322;SDS011;57735;56.264;43.898;2023-01-31T07:05:26;10.73;;;4.53;;
70322;SDS011;57735;56.264;43.898;2023-01-31T07:07:57;14.82;;;5.80;;
70322;SDS011;57735;56.264;43.898;2023-01-31T07:10:28;11.82;;;5.10;;
70322;SDS011;57735;56.264;43.898;2023-01-31T07:13:02;10.67;;;4.47;;
70322;SDS011;57735;56.264;43.898;2023-01-31T07:15:33;8.57;;;3.70;;
70322;SDS011;57735;56.264;43.898;2023-01-31T07:18:04;11.38;;;4.82;;
70322;SDS011;57735;56.264;43.898;2023-01-31T07:20:35;9.48;;;3.72;;
70322;SDS011;57735;56.264;43.898;2023-01-31T07:23:06;15.07;;;4.68;;
70322;SDS011;57735;56.264;43.898;2023-01-31T07:25:38;10.07;;;4.45;;
70322;SDS011;57735;56.264;43.898;2023-01-31T07:28:09;14.40;;;5.72;;
70322;SDS011;57735;56.264;43.898;2023-01-31T07:30:41;10.00;;;4.55;;
70322;SDS011;57735;56.264;43.898;2023-01-31T07:33:13;12.93;;;5.22;;
70322;SDS011;57735;56.264;43.898;2023-01-31T07:35:43;12.38;;;5.82;;
70322;SDS011;57735;56.264;43.898;2023-01-31T07:38:14;12.32;;;5.20;;
70322;SDS011;57735;56.264;43.898;2023-01-31T07:40:45;12.50;;;5.32;;
70322;SDS011;57735;56.264;43.898;2023-01-31T07:43:16;17.52;;;7.05;;
70322;SDS011;57735;56.264;43.898;2023-01-31T07:45:50;16.63;;;6.43;;
70322;SDS011;57735;56.264;43.898;2023-01-31T07:48:21;15.60;;;7.43;;
70322;SDS011;57735;56.264;43.898;2023-01-31T07:50:58;13.73;;;5.95;;
70322;SDS011;57735;56.264;43.898;2023-01-31T07:53:34;16.10;;;6.88;;
70322;SDS011;57735;56.264;43.898;2023-01-31T07:56:15;14.43;;;6.05;;
70322;SDS011;57735;56.264;43.898;2023-01-31T07:58:48;18.55;;;6.70;;
70322;SDS011;57735;56.264;43.898;2023-01-31T08:01:20;17.92;;;7.18;;
70322;SDS011;57735;56.264;43.898;2023-01-31T08:04:12;18.67;;;7.47;;
70322;SDS011;57735;56.264;43.898;2023-01-31T08:06:47;15.03;;;5.77;;
70322;SDS011;57735;56.264;43.898;2023-01-31T08:09:21;17.40;;;6.97;;
70322;SDS011;57735;56.264;43.898;2023-01-31T08:11:54;18.70;;;7.55;;
70322;SDS011;57735;56.264;43.898;2023-01-31T08:14:24;18.05;;;7.00;;
70322;SDS011;57735;56.264;43.898;2023-01-31T08:16:57;15.20;;;6.35;;
70322;SDS011;57735;56.264;43.898;2023-01-31T08:19:28;16.20;;;6.85;;
70322;SDS011;57735;56.264;43.898;2023-01-31T08:21:59;19.23;;;7.55;;
70322;SDS011;57735;56.264;43.898;2023-01-31T08:24:31;21.02;;;6.15;;
70322;SDS011;57735;56.264;43.898;2023-01-31T08:27:02;15.60;;;6.97;;
70322;SDS011;57735;56.264;43.898;2023-01-31T08:29:38;22.25;;;7.90;;
70322;SDS011;57735;56.264;43.898;2023-01-31T08:32:09;20.73;;;8.60;;
70322;SDS011;57735;56.264;43.898;2023-01-31T08:34:40;21.08;;;9.23;;
70322;SDS011;57735;56.264;43.898;2023-01-31T08:37:12;22.17;;;8.35;;
70322;SDS011;57735;56.264;43.898;2023-01-31T08:39:43;18.58;;;7.30;;
70322;SDS011;57735;56.264;43.898;2023-01-31T08:42:14;21.20;;;8.82;;
70322;SDS011;57735;56.264;43.898;2023-01-31T08:44:44;23.27;;;8.35;;
70322;SDS011;57735;56.264;43.898;2023-01-31T08:47:15;19.02;;;8.30;;
70322;SDS011;57735;56.264;43.898;2023-01-31T08:49:46;19.45;;;7.82;;
70322;SDS011;57735;56.264;43.898;2023-01-31T08:52:17;18.63;;;7.30;;
70322;SDS011;57735;56.264;43.898;2023-01-31T08:54:48;20.58;;;7.68;;
70322;SDS011;57735;56.264;43.898;2023-01-31T08:57:19;18.67;;;7.13;;
70322;SDS011;57735;56.264;43.898;2023-01-31T08:59:52;17.92;;;6.30;;
70322;SDS011;57735;56.264;43.898;2023-01-31T09:02:24;14.13;;;6.07;;
70322;SDS011;57735;56.264;43.898;2023-01-31T09:04:56;23.48;;;8.38;;
70322;SDS011;57735;56.264;43.898;2023-01-31T09:07:29;21.17;;;8.18;;
70322;SDS011;57735;56.264;43.898;2023-01-31T09:10:00;19.38;;;7.60;;
70322;SDS011;57735;56.264;43.898;2023-01-31T09:12:43;19.73;;;7.85;;
70322;SDS011;57735;56.264;43.898;2023-01-31T09:15:14;18.73;;;7.28;;
70322;SDS011;57735;56.264;43.898;2023-01-31T09:17:45;14.73;;;5.93;;
70322;SDS011;57735;56.264;43.898;2023-01-31T09:20:16;20.15;;;7.85;;
70322;SDS011;57735;56.264;43.898;2023-01-31T09:22:50;17.13;;;7.22;;
70322;SDS011;57735;56.264;43.898;2023-01-31T09:25:20;21.40;;;8.00;;
70322;SDS011;57735;56.264;43.898;2023-01-31T09:27:52;16.33;;;6.82;;
70322;SDS011;57735;56.264;43.898;2023-01-31T09:30:23;18.95;;;7.13;;
70322;SDS011;57735;56.264;43.898;2023-01-31T09:32:53;18.90;;;8.13;;
70322;SDS011;57735;56.264;43.898;2023-01-31T09:35:25;18.17;;;7.22;;
70322;SDS011;57735;56.264;43.898;2023-01-31T09:37:55;20.73;;;6.95;;
70322;SDS011;57735;56.264;43.898;2023-01-31T09:40:27;21.35;;;8.65;;
70322;SDS011;57735;56.264;43.898;2023-01-31T09:43:05;19.92;;;7.63;;
70322;SDS011;57735;56.264;43.898;2023-01-31T09:45:40;20.80;;;8.57;;
70322;SDS011;57735;56.264;43.898;2023-01-31T09:48:14;23.67;;;9.45;;
70322;SDS011;57735;56.264;43.898;2023-01-31T09:50:50;20.65;;;6.93;;
70322;SDS011;57735;56.264;43.898;2023-01-31T09:53:28;21.80;;;8.38;;
70322;SDS011;57735;56.264;43.898;2023-01-31T09:56:11;24.20;;;8.88;;
70322;SDS011;57735;56.264;43.898;2023-01-31T10:01:54;23.60;;;9.10;;
70322;SDS011;57735;56.264;43.898;2023-01-31T10:07:48;19.40;;;6.75;;
70322;SDS011;57735;56.264;43.898;2023-01-31T10:10:35;27.63;;;10.27;;
70322;SDS011;57735;56.264;43.898;2023-01-31T10:13:25;27.77;;;10.18;;
70322;SDS011;57735;56.264;43.898;2023-01-31T10:16:13;20.73;;;8.40;;
70322;SDS011;57735;56.264;43.898;2023-01-31T10:18:48;26.48;;;9.65;;
70322;SDS011;57735;56.264;43.898;2023-01-31T10:21:25;19.67;;;8.55;;
70322;SDS011;57735;56.264;43.898;2023-01-31T10:24:03;24.13;;;8.90;;
70322;SDS011;57735;56.264;43.898;2023-01-31T10:26:43;25.15;;;9.23;;
70322;SDS011;57735;56.264;43.898;2023-01-31T10:31:59;24.48;;;9.45;;
70322;SDS011;57735;56.264;43.898;2023-01-31T10:39:59;22.05;;;9.13;;
70322;SDS011;57735;56.264;43.898;2023-01-31T10:42:37;26.92;;;9.80;;
70322;SDS011;57735;56.264;43.898;2023-01-31T10:55:54;23.10;;;9.35;;
70322;SDS011;57735;56.264;43.898;2023-01-31T10:58:34;24.00;;;8.87;;
70322;SDS011;57735;56.264;43.898;2023-01-31T11:01:05;24.05;;;8.40;;
70322;SDS011;57735;56.264;43.898;2023-01-31T11:03:44;24.60;;;8.85;;
70322;SDS011;57735;56.264;43.898;2023-01-31T11:06:19;21.77;;;8.52;;
70322;SDS011;57735;56.264;43.898;2023-01-31T11:08:52;27.35;;;8.75;;
70322;SDS011;57735;56.264;43.898;2023-01-31T11:11:27;27.17;;;10.13;;
70322;SDS011;57735;56.264;43.898;2023-01-31T11:14:15;22.77;;;9.65;;
70322;SDS011;57735;56.264;43.898;2023-01-31T11:17:00;25.90;;;8.55;;
70322;SDS011;57735;56.264;43.898;2023-01-31T11:22:06;23.77;;;9.32;;
70322;SDS011;57735;56.264;43.898;2023-01-31T11:24:48;27.45;;;8.85;;
70322;SDS011;57735;56.264;43.898;2023-01-31T11:27:39;55.55;;;10.10;;
70322;SDS011;57735;56.264;43.898;2023-01-31T11:30:19;22.55;;;9.35;;
70322;SDS011;57735;56.264;43.898;2023-01-31T11:33:25;31.73;;;10.02;;
70322;SDS011;57735;56.264;43.898;2023-01-31T11:36:08;26.92;;;9.70;;
70322;SDS011;57735;56.264;43.898;2023-01-31T11:38:40;28.98;;;9.27;;
70322;SDS011;57735;56.264;43.898;2023-01-31T11:41:31;24.92;;;9.65;;
70322;SDS011;57735;56.264;43.898;2023-01-31T11:44:06;21.83;;;8.50;;
70322;SDS011;57735;56.264;43.898;2023-01-31T11:49:30;37.83;;;12.50;;
70322;SDS011;57735;56.264;43.898;2023-01-31T11:52:17;36.00;;;12.40;;
70322;SDS011;57735;56.264;43.898;2023-01-31T11:54:54;41.33;;;13.18;;
70322;SDS011;57735;56.264;43.898;2023-01-31T11:57:34;40.45;;;14.13;;
70322;SDS011;57735;56.264;43.898;2023-01-31T12:00:15;36.88;;;13.20;;
70322;SDS011;57735;56.264;43.898;2023-01-31T12:03:13;28.45;;;9.20;;
70322;SDS011;57735;56.264;43.898;2023-01-31T12:05:50;53.85;;;16.05;;
70322;SDS011;57735;56.264;43.898;2023-01-31T12:08:39;34.30;;;11.90;;
70322;SDS011;57735;56.264;43.898;2023-01-31T12:14:00;27.90;;;10.38;;
70322;SDS011;57735;56.264;43.898;2023-01-31T12:16:49;23.52;;;7.80;;
70322;SDS011;57735;56.264;43.898;2023-01-31T12:19:34;24.95;;;9.10;;
70322;SDS011;57735;56.264;43.898;2023-01-31T12:22:17;27.92;;;9.38;;
70322;SDS011;57735;56.264;43.898;2023-01-31T12:25:14;26.35;;;10.25;;
70322;SDS011;57735;56.264;43.898;2023-01-31T12:30:59;24.77;;;10.40;;
70322;SDS011;57735;56.264;43.898;2023-01-31T12:36:41;22.13;;;8.55;;
70322;SDS011;57735;56.264;43.898;2023-01-31T12:39:49;22.20;;;8.32;;
70322;SDS011;57735;56.264;43.898;2023-01-31T12:45:30;21.48;;;8.55;;
70322;SDS011;57735;56.264;43.898;2023-01-31T12:48:20;20.40;;;8.13;;
70322;SDS011;57735;56.264;43.898;2023-01-31T12:54:14;21.02;;;7.53;;
70322;SDS011;57735;56.264;43.898;2023-01-31T13:02:57;22.13;;;7.88;;
70322;SDS011;57735;56.264;43.898;2023-01-31T13:06:03;17.25;;;6.15;;
70322;SDS011;57735;56.264;43.898;2023-01-31T13:08:46;20.42;;;7.50;;
70322;SDS011;57735;56.264;43.898;2023-01-31T13:11:42;18.23;;;6.55;;
70322;SDS011;57735;56.264;43.898;2023-01-31T13:14:19;20.45;;;7.13;;
70322;SDS011;57735;56.264;43.898;2023-01-31T13:16:53;20.85;;;8.57;;
70322;SDS011;57735;56.264;43.898;2023-01-31T13:19:38;22.25;;;7.80;;
70322;SDS011;57735;56.264;43.898;2023-01-31T13:22:27;21.27;;;7.53;;
70322;SDS011;57735;56.264;43.898;2023-01-31T13:27:58;18.80;;;8.05;;
70322;SDS011;57735;56.264;43.898;2023-01-31T13:36:09;23.83;;;8.90;;
70322;SDS011;57735;56.264;43.898;2023-01-31T13:38:51;23.60;;;10.02;;
70322;SDS011;57735;56.264;43.898;2023-01-31T13:41:29;22.13;;;9.23;;
70322;SDS011;57735;56.264;43.898;2023-01-31T13:44:04;27.45;;;9.63;;
70322;SDS011;57735;56.264;43.898;2023-01-31T13:46:41;21.05;;;7.43;;
70322;SDS011;57735;56.264;43.898;2023-01-31T13:51:51;17.70;;;7.25;;
70322;SDS011;57735;56.264;43.898;2023-01-31T13:54:31;19.17;;;6.43;;
70322;SDS011;57735;56.264;43.898;2023-01-31T13:57:19;21.83;;;8.40;;
70322;SDS011;57735;56.264;43.898;2023-01-31T14:03:07;25.23;;;8.90;;
70322;SDS011;57735;56.264;43.898;2023-01-31T14:08:26;23.10;;;8.50;;
70322;SDS011;57735;56.264;43.898;2023-01-31T14:11:01;16.67;;;7.07;;
70322;SDS011;57735;56.264;43.898;2023-01-31T14:16:59;20.10;;;7.18;;
70322;SDS011;57735;56.264;43.898;2023-01-31T14:20:00;21.52;;;7.82;;
70322;SDS011;57735;56.264;43.898;2023-01-31T14:24:57;21.45;;;9.13;;
70322;SDS011;57735;56.264;43.898;2023-01-31T14:27:45;21.88;;;8.30;;
70322;SDS011;57735;56.264;43.898;2023-01-31T14:44:11;19.17;;;7.75;;
70322;SDS011;57735;56.264;43.898;2023-01-31T14:58:03;19.42;;;7.47;;
70322;SDS011;57735;56.264;43.898;2023-01-31T15:00:37;21.70;;;8.40;;
70322;SDS011;57735;56.264;43.898;2023-01-31T15:03:17;19.92;;;7.53;;
70322;SDS011;57735;56.264;43.898;2023-01-31T15:05:53;21.77;;;7.50;;
70322;SDS011;57735;56.264;43.898;2023-01-31T15:08:36;20.52;;;7.57;;
70322;SDS011;57735;56.264;43.898;2023-01-31T15:17:27;17.70;;;6.80;;
70322;SDS011;57735;56.264;43.898;2023-01-31T15:22:43;24.65;;;8.02;;
70322;SDS011;57735;56.264;43.898;2023-01-31T15:25:27;21.45;;;8.57;;
70322;SDS011;57735;56.264;43.898;2023-01-31T15:28:14;20.33;;;8.65;;
70322;SDS011;57735;56.264;43.898;2023-01-31T15:30:48;17.63;;;7.13;;
70322;SDS011;57735;56.264;43.898;2023-01-31T15:33:22;25.25;;;9.25;;
70322;SDS011;57735;56.264;43.898;2023-01-31T15:36:01;23.58;;;8.15;;
70322;SDS011;57735;56.264;43.898;2023-01-31T15:38:42;25.17;;;8.93;;
70322;SDS011;57735;56.264;43.898;2023-01-31T15:44:23;22.63;;;9.10;;
70322;SDS011;57735;56.264;43.898;2023-01-31T15:46:58;19.45;;;8.02;;
70322;SDS011;57735;56.264;43.898;2023-01-31T15:49:30;20.33;;;6.47;;
70322;SDS011;57735;56.264;43.898;2023-01-31T15:52:14;19.75;;;8.13;;
70322;SDS011;57735;56.264;43.898;2023-01-31T15:54:57;24.83;;;9.73;;
70322;SDS011;57735;56.264;43.898;2023-01-31T15:57:36;24.13;;;8.73;;
70322;SDS011;57735;56.264;43.898;2023-01-31T16:00:33;27.98;;;10.07;;
70322;SDS011;57735;56.264;43.898;2023-01-31T16:03:13;23.88;;;9.77;;
70322;SDS011;57735;56.264;43.898;2023-01-31T16:05:50;21.92;;;8.50;;
70322;SDS011;57735;56.264;43.898;2023-01-31T16:08:36;20.48;;;8.60;;
70322;SDS011;57735;56.264;43.898;2023-01-31T16:11:08;23.67;;;9.63;;
70322;SDS011;57735;56.264;43.898;2023-01-31T16:13:40;22.98;;;9.30;;
70322;SDS011;57735;56.264;43.898;2023-01-31T16:16:12;24.73;;;9.32;;
70322;SDS011;57735;56.264;43.898;2023-01-31T16:18:47;18.65;;;8.25;;
70322;SDS011;57735;56.264;43.898;2023-01-31T16:21:24;21.02;;;8.18;;
70322;SDS011;57735;56.264;43.898;2023-01-31T16:24:02;22.33;;;8.27;;
70322;SDS011;57735;56.264;43.898;2023-01-31T16:26:53;25.23;;;10.43;;
70322;SDS011;57735;56.264;43.898;2023-01-31T16:29:38;19.70;;;8.65;;
70322;SDS011;57735;56.264;43.898;2023-01-31T16:32:18;23.27;;;9.50;;
70322;SDS011;57735;56.264;43.898;2023-01-31T16:37:38;21.35;;;8.32;;
70322;SDS011;57735;56.264;43.898;2023-01-31T16:43:10;22.40;;;9.43;;
70322;SDS011;57735;56.264;43.898;2023-01-31T16:45:54;22.45;;;8.88;;
70322;SDS011;57735;56.264;43.898;2023-01-31T16:48:27;23.63;;;8.90;;
70322;SDS011;57735;56.264;43.898;2023-01-31T16:56:41;25.92;;;9.40;;
70322;SDS011;57735;56.264;43.898;2023-01-31T17:04:54;24.60;;;8.38;;
70322;SDS011;57735;56.264;43.898;2023-01-31T17:07:31;24.55;;;9.00;;
70322;SDS011;57735;56.264;43.898;2023-01-31T17:10:06;22.30;;;8.50;;
70322;SDS011;57735;56.264;43.898;2023-01-31T17:12:38;31.45;;;11.68;;
70322;SDS011;57735;56.264;43.898;2023-01-31T17:15:14;24.13;;;8.43;;
70322;SDS011;57735;56.264;43.898;2023-01-31T17:17:46;16.73;;;7.38;;
70322;SDS011;57735;56.264;43.898;2023-01-31T17:20:18;22.52;;;9.55;;
70322;SDS011;57735;56.264;43.898;2023-01-31T17:22:51;28.40;;;10.75;;
70322;SDS011;57735;56.264;43.898;2023-01-31T17:25:23;42.22;;;13.60;;
70322;SDS011;57735;56.264;43.898;2023-01-31T17:27:57;22.77;;;9.05;;
70322;SDS011;57735;56.264;43.898;2023-01-31T17:30:28;22.67;;;8.85;;
70322;SDS011;57735;56.264;43.898;2023-01-31T17:33:04;24.25;;;8.82;;
70322;SDS011;57735;56.264;43.898;2023-01-31T17:35:39;23.17;;;8.20;;
70322;SDS011;57735;56.264;43.898;2023-01-31T17:38:11;24.30;;;8.73;;
70322;SDS011;57735;56.264;43.898;2023-01-31T17:40:42;17.88;;;7.70;;
70322;SDS011;57735;56.264;43.898;2023-01-31T17:43:19;21.75;;;8.73;;
70322;SDS011;57735;56.264;43.898;2023-01-31T17:45:51;21.02;;;8.68;;
70322;SDS011;57735;56.264;43.898;2023-01-31T17:48:22;21.35;;;8.82;;
70322;SDS011;57735;56.264;43.898;2023-01-31T17:50:53;23.58;;;9.13;;
70322;SDS011;57735;56.264;43.898;2023-01-31T17:53:24;22.58;;;8.75;;
70322;SDS011;57735;56.264;43.898;2023-01-31T17:55:55;22.70;;;9.38;;
70322;SDS011;57735;56.264;43.898;2023-01-31T17:58:26;23.83;;;8.38;;